Time;durP1;ratioP1;P1;durP2;ratioP2;P2;SDS_P1;SDS_P2;PMS_P1;PMS_P2;Temp;Humidity;BMP_temperature;BMP_pressure;BME280_temperature;BME280_humidity;BME280_pressure;Samples;Min_cycle;Max_cycle;Signal;HPM_P1;HPM_P2
2021/01/28 00:03:55;;;;;;;6.50;3.03;;;;;;;;;;10368657;28;20277;-71
2021/01/28 00:08:56;;;;;;;6.73;3.70;;;;;;;;;;10337802;28;20580;-71
2021/01/28 00:13:58;;;;;;;6.90;3.47;;;;;;;;;;10331807;28;20222;-71
2021/01/28 00:19:00;;;;;;;7.13;3.43;;;;;;;;;;10345191;28;20281;-70
2021/01/28 00:24:06;;;;;;;7.17;3.63;;;;;;;;;;10356847;28;20225;-70
2021/01/28 00:29:08;;;;;;;7.67;3.83;;;;;;;;;;10365262;28;20207;-69
2021/01/28 00:34:11;;;;;;;5.83;3.07;;;;;;;;;;10345499;28;20316;-70
2021/01/28 00:39:12;;;;;;;7.00;3.33;;;;;;;;;;10339767;28;20210;-70
2021/01/28 00:44:14;;;;;;;8.03;3.90;;;;;;;;;;10351100;28;20241;-69
2021/01/28 00:49:17;;;;;;;7.40;3.97;;;;;;;;;;10339143;28;20205;-68
2021/01/28 00:54:18;;;;;;;7.50;3.43;;;;;;;;;;10345672;28;20586;-70
2021/01/28 00:59:20;;;;;;;7.73;3.53;;;;;;;;;;10351668;28;20623;-69
2021/01/28 01:04:23;;;;;;;7.30;3.73;;;;;;;;;;10345856;28;20612;-69
2021/01/28 01:09:25;;;;;;;7.30;3.40;;;;;;;;;;10335469;28;20620;-70
2021/01/28 01:14:26;;;;;;;8.53;3.83;;;;;;;;;;10350193;28;20234;-71
2021/01/28 01:19:28;;;;;;;8.20;3.73;;;;;;;;;;10345408;28;20199;-71
2021/01/28 01:24:30;;;;;;;7.40;3.70;;;;;;;;;;10360335;28;20729;-71
2021/01/28 01:29:31;;;;;;;7.00;3.40;;;;;;;;;;10352084;28;20211;-71
2021/01/28 01:34:34;;;;;;;7.17;3.40;;;;;;;;;;10357934;28;20297;-70
2021/01/28 01:39:35;;;;;;;6.63;3.20;;;;;;;;;;10335339;28;20521;-70
2021/01/28 01:44:37;;;;;;;6.97;3.30;;;;;;;;;;10358297;28;20238;-71
2021/01/28 01:49:42;;;;;;;7.00;3.20;;;;;;;;;;10345132;28;20280;-71
2021/01/28 01:54:47;;;;;;;5.30;3.00;;;;;;;;;;10360015;28;20210;-72
2021/01/28 01:59:51;;;;;;;6.03;2.90;;;;;;;;;;10355973;28;20198;-70
2021/01/28 02:04:58;;;;;;;6.33;3.07;;;;;;;;;;10362244;28;20259;-70
2021/01/28 02:09:59;;;;;;;6.47;3.07;;;;;;;;;;10355598;28;20316;-70
2021/01/28 02:15:04;;;;;;;5.67;2.60;;;;;;;;;;10353097;28;20554;-70
2021/01/28 02:20:23;;;;;;;7.00;2.90;;;;;;;;;;10361200;28;20705;-69
2021/01/28 02:25:26;;;;;;;3.60;1.83;;;;;;;;;;10353789;28;20232;-69
2021/01/28 02:30:29;;;;;;;5.70;2.40;;;;;;;;;;10351606;28;20225;-70
2021/01/28 02:35:32;;;;;;;5.47;2.77;;;;;;;;;;10329647;28;20321;-69
2021/01/28 02:40:34;;;;;;;5.77;2.40;;;;;;;;;;10352830;28;20316;-70
2021/01/28 02:45:37;;;;;;;5.80;2.70;;;;;;;;;;10357830;28;20364;-69
2021/01/28 02:50:39;;;;;;;5.43;2.77;;;;;;;;;;10357976;28;20218;-70
2021/01/28 02:55:41;;;;;;;6.87;2.60;;;;;;;;;;10351194;28;20233;-71
2021/01/28 03:00:43;;;;;;;3.50;1.60;;;;;;;;;;10356669;28;20254;-70
2021/01/28 03:05:45;;;;;;;5.43;2.83;;;;;;;;;;10360574;28;20198;-71
2021/01/28 03:10:47;;;;;;;6.13;2.77;;;;;;;;;;10344333;28;20883;-70
2021/01/28 03:15:49;;;;;;;6.03;2.70;;;;;;;;;;10342901;28;20719;-69
2021/01/28 03:20:51;;;;;;;5.07;2.30;;;;;;;;;;10361312;28;20214;-71
2021/01/28 03:25:54;;;;;;;4.57;2.30;;;;;;;;;;10355457;28;20205;-70
2021/01/28 03:30:56;;;;;;;4.40;2.10;;;;;;;;;;10353489;28;20297;-69
2021/01/28 03:35:57;;;;;;;4.20;1.90;;;;;;;;;;10343661;28;20725;-70
2021/01/28 03:40:59;;;;;;;3.70;1.90;;;;;;;;;;10346705;28;20329;-69
2021/01/28 03:46:03;;;;;;;4.37;2.10;;;;;;;;;;10367759;28;20289;-69
2021/01/28 03:51:06;;;;;;;3.83;1.80;;;;;;;;;;10362474;28;20245;-69
2021/01/28 03:56:08;;;;;;;3.30;1.90;;;;;;;;;;10356592;28;20206;-69
2021/01/28 04:01:11;;;;;;;3.80;1.70;;;;;;;;;;10354244;28;20254;-70
2021/01/28 04:06:13;;;;;;;3.33;1.60;;;;;;;;;;10363874;28;20186;-71
2021/01/28 04:11:15;;;;;;;3.87;1.93;;;;;;;;;;10371021;28;20214;-70
2021/01/28 04:16:17;;;;;;;2.93;1.70;;;;;;;;;;10374550;28;20289;-69
2021/01/28 04:21:18;;;;;;;3.70;1.80;;;;;;;;;;10361185;28;20320;-70
2021/01/28 04:26:21;;;;;;;1.87;0.87;;;;;;;;;;10358316;28;20674;-71
2021/01/28 04:31:22;;;;;;;4.20;2.00;;;;;;;;;;10359284;28;20222;-73
2021/01/28 04:36:25;;;;;;;4.27;2.10;;;;;;;;;;10362548;28;20286;-69
2021/01/28 04:41:28;;;;;;;3.27;1.90;;;;;;;;;;10340951;28;20233;-70
2021/01/28 04:46:31;;;;;;;3.90;2.00;;;;;;;;;;10344451;28;20328;-70
2021/01/28 04:51:33;;;;;;;4.67;2.07;;;;;;;;;;10349099;28;20298;-69
2021/01/28 04:56:35;;;;;;;4.03;2.00;;;;;;;;;;10355628;28;20286;-69
2021/01/28 05:01:37;;;;;;;1.90;1.07;;;;;;;;;;10359152;28;20214;-69
2021/01/28 05:06:39;;;;;;;3.60;1.93;;;;;;;;;;10358174;28;20349;-69
2021/01/28 05:11:50;;;;;;;5.60;2.40;;;;;;;;;;10340033;28;20219;-70
2021/01/28 05:16:52;;;;;;;5.20;2.20;;;;;;;;;;10363710;28;20229;-69
2021/01/28 05:22:04;;;;;;;3.77;1.77;;;;;;;;;;10353734;28;20272;-71
2021/01/28 05:27:11;;;;;;;4.67;2.03;;;;;;;;;;10357538;28;20230;-71
2021/01/28 05:32:14;;;;;;;4.80;1.77;;;;;;;;;;10356778;28;20273;-69
2021/01/28 05:37:20;;;;;;;3.57;1.50;;;;;;;;;;10352382;28;20332;-71
2021/01/28 05:42:26;;;;;;;3.00;1.37;;;;;;;;;;10353034;28;20225;-69
2021/01/28 05:47:30;;;;;;;2.70;1.40;;;;;;;;;;10359896;28;20206;-70
2021/01/28 05:52:32;;;;;;;2.67;1.50;;;;;;;;;;10367540;28;20238;-68
2021/01/28 05:57:42;;;;;;;4.23;1.80;;;;;;;;;;10354777;28;20309;-68
2021/01/28 06:03:00;;;;;;;2.90;1.40;;;;;;;;;;10349094;28;20226;-70
2021/01/28 06:08:25;;;;;;;2.57;1.40;;;;;;;;;;10362742;28;20202;-71
2021/01/28 06:13:41;;;;;;;2.80;1.40;;;;;;;;;;10358824;28;20260;-69
2021/01/28 06:18:51;;;;;;;3.07;1.73;;;;;;;;;;10337675;28;20331;-70
2021/01/28 06:24:14;;;;;;;3.33;1.80;;;;;;;;;;10356427;28;20214;-70
2021/01/28 06:29:29;;;;;;;7.33;2.03;;;;;;;;;;10362032;28;20194;-71
2021/01/28 06:34:45;;;;;;;4.77;2.10;;;;;;;;;;10353825;28;20534;-70
2021/01/28 06:39:49;;;;;;;5.70;2.27;;;;;;;;;;10359458;28;20256;-71
2021/01/28 06:44:54;;;;;;;7.63;2.10;;;;;;;;;;10362029;28;20270;-71
2021/01/28 06:49:58;;;;;;;6.27;2.27;;;;;;;;;;10365637;28;20198;-70
2021/01/28 06:55:03;;;;;;;4.77;2.33;;;;;;;;;;10361573;28;20205;-69
2021/01/28 07:00:11;;;;;;;4.50;2.33;;;;;;;;;;10352883;28;20322;-69
2021/01/28 07:05:21;;;;;;;5.30;2.27;;;;;;;;;;10360889;28;20245;-72
2021/01/28 07:10:25;;;;;;;6.30;2.47;;;;;;;;;;10349613;28;20891;-71
2021/01/28 07:15:27;;;;;;;7.70;2.00;;;;;;;;;;10361157;28;20206;-71
2021/01/28 07:20:31;;;;;;;5.77;2.60;;;;;;;;;;10359509;28;20229;-70
2021/01/28 07:25:33;;;;;;;6.47;2.50;;;;;;;;;;10349550;28;20186;-72
2021/01/28 07:30:40;;;;;;;6.73;2.40;;;;;;;;;;10358548;28;20932;-69
2021/01/28 07:35:43;;;;;;;4.30;2.10;;;;;;;;;;10347561;28;20237;-70
2021/01/28 07:40:55;;;;;;;3.17;1.47;;;;;;;;;;10327743;28;20233;-69
2021/01/28 07:46:11;;;;;;;3.40;1.40;;;;;;;;;;10353303;28;20650;-70
2021/01/28 07:51:29;;;;;;;7.63;3.03;;;;;;;;;;10351670;28;20742;-69
2021/01/28 07:56:55;;;;;;;7.13;3.17;;;;;;;;;;10357810;28;20686;-69
2021/01/28 08:01:59;;;;;;;9.30;3.43;;;;;;;;;;10358400;28;20224;-69
2021/01/28 08:07:04;;;;;;;6.60;2.47;;;;;;;;;;10360332;28;20206;-70
2021/01/28 08:12:06;;;;;;;5.27;2.10;;;;;;;;;;10355946;28;20694;-69
2021/01/28 08:17:11;;;;;;;6.63;1.80;;;;;;;;;;10342954;28;20223;-69
2021/01/28 08:22:15;;;;;;;6.77;2.40;;;;;;;;;;10356698;28;20241;-70
2021/01/28 08:27:18;;;;;;;9.57;2.50;;;;;;;;;;10356282;28;20191;-71
2021/01/28 08:32:23;;;;;;;6.60;2.03;;;;;;;;;;10364408;28;20276;-69
2021/01/28 08:37:25;;;;;;;4.23;1.50;;;;;;;;;;10365418;28;20765;-70
2021/01/28 08:42:27;;;;;;;6.83;2.00;;;;;;;;;;10360300;28;21055;-69
2021/01/28 08:47:31;;;;;;;5.27;2.10;;;;;;;;;;10365265;28;20639;-70
2021/01/28 08:52:33;;;;;;;1.37;0.90;;;;;;;;;;10363347;28;20594;-71
2021/01/28 08:57:35;;;;;;;3.10;1.47;;;;;;;;;;10362804;28;20218;-71
2021/01/28 09:02:38;;;;;;;5.30;2.17;;;;;;;;;;10348390;28;20305;-70
2021/01/28 09:07:41;;;;;;;2.13;1.13;;;;;;;;;;10362771;28;20217;-71
2021/01/28 09:12:43;;;;;;;6.30;2.00;;;;;;;;;;10364630;28;20219;-72
2021/01/28 09:17:45;;;;;;;5.23;2.00;;;;;;;;;;10344393;28;20218;-71
2021/01/28 09:22:47;;;;;;;5.27;2.23;;;;;;;;;;10366435;28;20211;-71
2021/01/28 09:27:59;;;;;;;5.63;2.10;;;;;;;;;;10359823;28;20239;-71
2021/01/28 09:33:16;;;;;;;5.93;2.53;;;;;;;;;;10361286;28;20296;-70
2021/01/28 09:38:19;;;;;;;1.07;0.63;;;;;;;;;;10363209;28;20240;-71
2021/01/28 09:43:25;;;;;;;5.20;1.90;;;;;;;;;;10358403;28;20393;-71
2021/01/28 09:48:27;;;;;;;2.97;1.57;;;;;;;;;;10363413;28;20226;-72
2021/01/28 09:53:30;;;;;;;2.77;0.70;;;;;;;;;;10361802;28;20704;-71
2021/01/28 09:58:32;;;;;;;1.73;0.70;;;;;;;;;;10363947;28;20772;-71
2021/01/28 10:03:34;;;;;;;0.60;0.50;;;;;;;;;;10358801;28;20289;-73
2021/01/28 10:08:37;;;;;;;2.73;0.90;;;;;;;;;;10346326;28;20231;-72
2021/01/28 10:13:39;;;;;;;2.33;0.70;;;;;;;;;;10363002;28;20833;-72
2021/01/28 10:18:40;;;;;;;2.57;1.00;;;;;;;;;;10360733;28;20284;-72
2021/01/28 10:23:43;;;;;;;2.23;0.73;;;;;;;;;;10343447;28;20225;-72
2021/01/28 10:28:45;;;;;;;2.03;0.87;;;;;;;;;;10342908;28;20187;-71
2021/01/28 10:33:47;;;;;;;4.60;1.27;;;;;;;;;;10337980;28;20570;-72
2021/01/28 10:38:49;;;;;;;3.17;1.10;;;;;;;;;;10353624;28;20217;-72
2021/01/28 10:43:51;;;;;;;3.90;1.43;;;;;;;;;;10357693;28;20222;-70
2021/01/28 10:48:55;;;;;;;3.43;1.13;;;;;;;;;;10355986;28;20253;-72
2021/01/28 10:53:58;;;;;;;6.03;1.80;;;;;;;;;;10358569;28;20723;-73
2021/01/28 10:59:00;;;;;;;1.60;0.60;;;;;;;;;;10357913;28;20245;-72
2021/01/28 11:04:07;;;;;;;1.70;0.90;;;;;;;;;;10364765;28;20226;-73
2021/01/28 11:09:10;;;;;;;5.13;2.17;;;;;;;;;;10376596;28;20765;-73
2021/01/28 11:14:11;;;;;;;1.47;0.50;;;;;;;;;;10363002;28;20257;-72
2021/01/28 11:19:13;;;;;;;0.90;0.47;;;;;;;;;;10365216;28;20258;-72
2021/01/28 11:24:16;;;;;;;2.27;0.87;;;;;;;;;;10353550;28;20297;-71
2021/01/28 11:29:22;;;;;;;2.10;0.90;;;;;;;;;;10363055;28;20201;-71
2021/01/28 11:34:27;;;;;;;1.43;0.70;;;;;;;;;;10383117;28;21986;-70
2021/01/28 11:39:30;;;;;;;3.03;0.70;;;;;;;;;;10408589;28;20253;-69
2021/01/28 11:44:31;;;;;;;3.10;1.40;;;;;;;;;;10412671;28;20230;-71
2021/01/28 11:49:33;;;;;;;1.27;0.70;;;;;;;;;;10411363;28;20224;-70
2021/01/28 11:54:35;;;;;;;2.93;1.20;;;;;;;;;;10374941;28;20281;-71
2021/01/28 11:59:37;;;;;;;1.90;0.70;;;;;;;;;;10367607;28;20218;-72
2021/01/28 12:04:39;;;;;;;3.20;0.90;;;;;;;;;;10364637;28;20297;-71
2021/01/28 12:09:41;;;;;;;1.10;0.60;;;;;;;;;;10357926;28;20194;-71
2021/01/28 12:14:43;;;;;;;2.33;0.87;;;;;;;;;;10366785;28;20214;-70
2021/01/28 12:19:45;;;;;;;1.07;0.67;;;;;;;;;;10368805;28;20214;-71
2021/01/28 12:24:48;;;;;;;0.27;0.23;;;;;;;;;;10364389;28;20273;-70
2021/01/28 12:29:49;;;;;;;2.27;0.90;;;;;;;;;;10364946;28;20274;-70
2021/01/28 12:34:51;;;;;;;2.33;0.67;;;;;;;;;;10363603;28;20194;-70
2021/01/28 12:39:54;;;;;;;0.40;0.40;;;;;;;;;;10366536;28;20697;-71
2021/01/28 12:44:55;;;;;;;0.10;0.10;;;;;;;;;;10363666;28;20195;-72
2021/01/28 12:49:57;;;;;;;0.50;0.40;;;;;;;;;;10363251;28;20232;-71
2021/01/28 12:55:00;;;;;;;0.97;0.50;;;;;;;;;;10360623;28;20288;-72
2021/01/28 13:00:05;;;;;;;0.53;0.37;;;;;;;;;;10362895;28;20308;-71
2021/01/28 13:05:08;;;;;;;0.60;0.33;;;;;;;;;;10361439;28;20250;-71
2021/01/28 13:10:11;;;;;;;1.27;0.40;;;;;;;;;;10365403;28;20215;-72
2021/01/28 13:15:14;;;;;;;0.90;0.47;;;;;;;;;;10366345;28;20194;-72
2021/01/28 13:20:17;;;;;;;0.77;0.40;;;;;;;;;;10379467;28;20581;-71
2021/01/28 13:25:20;;;;;;;0.90;0.40;;;;;;;;;;10343836;28;20186;-71
2021/01/28 13:30:22;;;;;;;0.30;0.30;;;;;;;;;;10349200;28;20570;-71
2021/01/28 13:35:25;;;;;;;0.10;0.10;;;;;;;;;;10347190;28;20198;-72
2021/01/28 13:40:29;;;;;;;0.77;0.30;;;;;;;;;;10367425;28;20218;-70
2021/01/28 13:45:31;;;;;;;0.63;0.33;;;;;;;;;;10361836;28;20245;-71
2021/01/28 13:50:35;;;;;;;1.23;0.23;;;;;;;;;;10361320;28;20218;-70
2021/01/28 13:55:37;;;;;;;1.87;0.50;;;;;;;;;;10361307;28;20290;-70
2021/01/28 14:00:39;;;;;;;1.40;0.20;;;;;;;;;;10360443;28;20582;-72
2021/01/28 14:05:40;;;;;;;0.53;0.20;;;;;;;;;;10351687;28;20352;-71
2021/01/28 14:10:43;;;;;;;1.53;0.47;;;;;;;;;;10360108;28;20214;-71
2021/01/28 14:15:44;;;;;;;0.77;0.43;;;;;;;;;;10352071;28;20202;-72
2021/01/28 14:20:47;;;;;;;0.20;0.20;;;;;;;;;;10367884;28;20226;-72
2021/01/28 14:25:49;;;;;;;0.63;0.30;;;;;;;;;;10373624;28;20230;-72
2021/01/28 14:30:51;;;;;;;0.27;0.27;;;;;;;;;;10374745;28;20693;-71
2021/01/28 14:35:53;;;;;;;0.40;0.20;;;;;;;;;;10374431;28;20582;-71
2021/01/28 14:40:57;;;;;;;1.40;0.50;;;;;;;;;;10369313;28;20226;-71
2021/01/28 14:45:59;;;;;;;0.60;0.20;;;;;;;;;;10365423;28;20199;-70
2021/01/28 14:51:00;;;;;;;1.63;0.40;;;;;;;;;;10357641;28;20305;-71
2021/01/28 14:56:06;;;;;;;1.43;0.50;;;;;;;;;;10361928;28;20210;-70
2021/01/28 15:01:07;;;;;;;0.20;0.20;;;;;;;;;;10330466;28;20221;-71
2021/01/28 15:06:09;;;;;;;0.43;0.40;;;;;;;;;;10345043;28;20191;-71
2021/01/28 15:11:12;;;;;;;0.80;0.70;;;;;;;;;;10361885;28;20225;-70
2021/01/28 15:16:13;;;;;;;1.63;0.50;;;;;;;;;;10357303;28;20213;-70
2021/01/28 15:21:16;;;;;;;0.83;0.40;;;;;;;;;;10361424;28;20225;-71
2021/01/28 15:26:24;;;;;;;0.30;0.30;;;;;;;;;;10337631;28;20194;-71
2021/01/28 15:31:25;;;;;;;1.17;0.60;;;;;;;;;;10359497;28;20214;-70
2021/01/28 15:36:27;;;;;;;1.40;0.70;;;;;;;;;;10365909;28;20203;-71
2021/01/28 15:41:29;;;;;;;0.67;0.47;;;;;;;;;;10340625;28;595541;-70
2021/01/28 15:46:31;;;;;;;0.80;0.43;;;;;;;;;;10358619;28;20202;-70
2021/01/28 15:51:33;;;;;;;2.57;0.60;;;;;;;;;;10331652;28;20246;-71
2021/01/28 15:56:36;;;;;;;0.73;0.20;;;;;;;;;;10360066;28;20202;-71
2021/01/28 16:01:39;;;;;;;0.40;0.30;;;;;;;;;;10358281;28;20626;-71
2021/01/28 16:06:40;;;;;;;0.40;0.40;;;;;;;;;;10355615;28;20194;-70
2021/01/28 16:11:44;;;;;;;1.80;0.77;;;;;;;;;;10358308;28;20229;-70
2021/01/28 16:16:46;;;;;;;0.73;0.50;;;;;;;;;;10356298;28;20222;-72
2021/01/28 16:21:48;;;;;;;0.70;0.30;;;;;;;;;;10359106;28;20218;-70
2021/01/28 16:26:50;;;;;;;0.47;0.47;;;;;;;;;;10349601;28;20218;-71
2021/01/28 16:31:52;;;;;;;0.93;0.50;;;;;;;;;;10360350;28;20222;-71
2021/01/28 16:36:54;;;;;;;0.30;0.30;;;;;;;;;;10359347;28;20218;-71
2021/01/28 16:41:57;;;;;;;0.77;0.53;;;;;;;;;;10364847;28;20702;-70
2021/01/28 16:46:59;;;;;;;0.50;0.40;;;;;;;;;;10366175;28;20647;-71
2021/01/28 16:52:03;;;;;;;2.20;0.60;;;;;;;;;;10344348;28;20325;-71
2021/01/28 16:57:06;;;;;;;0.97;0.40;;;;;;;;;;10362381;28;20261;-72
2021/01/28 17:02:08;;;;;;;2.00;0.60;;;;;;;;;;10364510;28;20218;-73
2021/01/28 17:07:10;;;;;;;0.63;0.40;;;;;;;;;;10368779;28;20199;-71
2021/01/28 17:12:12;;;;;;;1.93;0.50;;;;;;;;;;10368269;28;20226;-72
2021/01/28 17:17:14;;;;;;;0.67;0.60;;;;;;;;;;10363447;28;20662;-73
2021/01/28 17:22:15;;;;;;;0.97;0.57;;;;;;;;;;10368327;28;20238;-73
2021/01/28 17:27:18;;;;;;;1.27;0.80;;;;;;;;;;10349171;28;20293;-72
2021/01/28 17:32:19;;;;;;;1.17;0.70;;;;;;;;;;10364769;28;20289;-70
2021/01/28 17:37:21;;;;;;;0.90;0.50;;;;;;;;;;10363939;28;20214;-71
2021/01/28 17:42:25;;;;;;;1.07;0.67;;;;;;;;;;10361084;28;20294;-71
2021/01/28 17:47:26;;;;;;;0.53;0.40;;;;;;;;;;10344109;28;20223;-71
2021/01/28 17:52:28;;;;;;;0.90;0.60;;;;;;;;;;10361218;28;20223;-73
2021/01/28 17:57:31;;;;;;;1.53;0.80;;;;;;;;;;10372718;28;20203;-71
2021/01/28 18:02:33;;;;;;;0.97;0.57;;;;;;;;;;10346771;28;20269;-72
2021/01/28 18:07:35;;;;;;;1.57;0.63;;;;;;;;;;10364336;28;20221;-70
2021/01/28 18:12:37;;;;;;;1.03;0.50;;;;;;;;;;10371189;28;20214;-70
2021/01/28 18:17:40;;;;;;;1.00;0.50;;;;;;;;;;10362391;28;20207;-72
2021/01/28 18:22:44;;;;;;;2.50;1.33;;;;;;;;;;10359497;28;20317;-73
2021/01/28 18:27:46;;;;;;;1.93;1.37;;;;;;;;;;10368448;28;20258;-73
2021/01/28 18:32:48;;;;;;;3.57;1.20;;;;;;;;;;10376041;28;20240;-73
2021/01/28 18:37:52;;;;;;;1.70;0.70;;;;;;;;;;10372888;28;20221;-72
2021/01/28 18:42:56;;;;;;;1.17;0.57;;;;;;;;;;10371616;28;20213;-73
2021/01/28 18:47:57;;;;;;;1.27;0.87;;;;;;;;;;10378923;28;20268;-73
2021/01/28 18:52:59;;;;;;;0.97;0.70;;;;;;;;;;10386386;28;20269;-71
2021/01/28 18:58:04;;;;;;;0.83;0.70;;;;;;;;;;10357250;28;20222;-73
2021/01/28 19:03:06;;;;;;;1.60;1.20;;;;;;;;;;10365047;28;20333;-72
2021/01/28 19:08:07;;;;;;;2.23;1.10;;;;;;;;;;10372672;28;20206;-73
2021/01/28 19:13:11;;;;;;;2.57;1.50;;;;;;;;;;10375271;28;20289;-72
2021/01/28 19:18:13;;;;;;;1.63;0.63;;;;;;;;;;10366470;28;20209;-72
2021/01/28 19:23:15;;;;;;;3.00;1.33;;;;;;;;;;10365502;28;20218;-72
2021/01/28 19:28:18;;;;;;;3.27;1.00;;;;;;;;;;10363822;28;20194;-72
2021/01/28 19:33:21;;;;;;;2.27;1.10;;;;;;;;;;10359247;28;20266;-74
2021/01/28 19:38:24;;;;;;;2.13;1.10;;;;;;;;;;10374106;28;20214;-74
2021/01/28 19:43:29;;;;;;;1.57;0.93;;;;;;;;;;10368944;28;20218;-73
2021/01/28 19:48:31;;;;;;;1.77;0.97;;;;;;;;;;10366211;28;20686;-72
2021/01/28 19:53:32;;;;;;;2.37;1.40;;;;;;;;;;10367300;28;20214;-71
2021/01/28 19:58:36;;;;;;;3.27;1.37;;;;;;;;;;10363796;28;20203;-72
2021/01/28 20:03:38;;;;;;;3.67;1.60;;;;;;;;;;10347879;28;20341;-74
2021/01/28 20:08:39;;;;;;;2.37;1.50;;;;;;;;;;10371230;28;20266;-73
2021/01/28 20:13:42;;;;;;;1.90;1.10;;;;;;;;;;10370924;28;20592;-73
2021/01/28 20:18:43;;;;;;;1.67;1.33;;;;;;;;;;10360744;28;20290;-72
2021/01/28 20:23:45;;;;;;;1.47;1.10;;;;;;;;;;10365369;28;20219;-72
2021/01/28 20:28:48;;;;;;;2.30;1.43;;;;;;;;;;10371246;28;20659;-74
2021/01/28 20:33:49;;;;;;;3.33;1.63;;;;;;;;;;10369807;28;20583;-72
2021/01/28 20:38:51;;;;;;;2.77;1.60;;;;;;;;;;10368982;28;20225;-72
2021/01/28 20:43:54;;;;;;;2.97;1.57;;;;;;;;;;10367946;28;20591;-74
2021/01/28 20:48:56;;;;;;;1.37;0.80;;;;;;;;;;10360153;28;20271;-72
2021/01/28 20:54:04;;;;;;;1.07;0.80;;;;;;;;;;10356786;28;20346;-74
2021/01/28 20:59:10;;;;;;;2.30;1.10;;;;;;;;;;10370475;28;20515;-73
2021/01/28 21:04:12;;;;;;;0.97;0.90;;;;;;;;;;10369046;28;20658;-72
2021/01/28 21:09:14;;;;;;;1.53;0.77;;;;;;;;;;10383740;28;20272;-71
2021/01/28 21:14:16;;;;;;;2.27;1.37;;;;;;;;;;10369634;28;20301;-71
2021/01/28 21:19:18;;;;;;;1.67;0.90;;;;;;;;;;10366518;28;20336;-71
2021/01/28 21:24:19;;;;;;;1.43;0.83;;;;;;;;;;10364331;28;20217;-73
2021/01/28 21:29:22;;;;;;;3.23;1.30;;;;;;;;;;10371582;28;20743;-72
2021/01/28 21:34:23;;;;;;;2.23;1.33;;;;;;;;;;10367035;28;20253;-71
2021/01/28 21:39:25;;;;;;;1.60;1.00;;;;;;;;;;10367715;28;20785;-71
2021/01/28 21:44:27;;;;;;;1.40;1.10;;;;;;;;;;10352869;28;20214;-72
2021/01/28 21:49:29;;;;;;;1.23;0.77;;;;;;;;;;10350773;28;20236;-71
2021/01/28 21:54:31;;;;;;;1.50;1.00;;;;;;;;;;10372990;28;20261;-73
2021/01/28 21:59:36;;;;;;;2.43;1.10;;;;;;;;;;10363683;28;20199;-71
2021/01/28 22:04:38;;;;;;;2.33;1.00;;;;;;;;;;10367126;28;20226;-73
2021/01/28 22:09:39;;;;;;;1.33;0.73;;;;;;;;;;10356467;28;20214;-72
2021/01/28 22:14:42;;;;;;;0.80;0.80;;;;;;;;;;10368462;28;20530;-71
2021/01/28 22:19:43;;;;;;;0.90;0.80;;;;;;;;;;10378037;28;20210;-73
2021/01/28 22:24:46;;;;;;;0.87;0.67;;;;;;;;;;10364522;28;20750;-72
2021/01/28 22:29:48;;;;;;;1.17;0.80;;;;;;;;;;10364103;28;20214;-73
2021/01/28 22:34:50;;;;;;;1.03;0.70;;;;;;;;;;10362878;28;20225;-73
2021/01/28 22:39:51;;;;;;;1.23;0.90;;;;;;;;;;10367458;28;20214;-71
2021/01/28 22:44:54;;;;;;;1.93;0.80;;;;;;;;;;10380756;28;20198;-72
2021/01/28 22:49:56;;;;;;;1.77;0.97;;;;;;;;;;10370037;28;20186;-73
2021/01/28 22:54:57;;;;;;;2.70;0.90;;;;;;;;;;10379059;28;20700;-73
2021/01/28 23:00:00;;;;;;;1.47;0.90;;;;;;;;;;10378367;28;20222;-73
2021/01/28 23:05:07;;;;;;;0.67;0.67;;;;;;;;;;10371983;28;20645;-72
2021/01/28 23:10:11;;;;;;;1.70;0.97;;;;;;;;;;10372858;28;20277;-72
2021/01/28 23:15:14;;;;;;;1.13;0.70;;;;;;;;;;10364352;28;20189;-73
2021/01/28 23:20:17;;;;;;;0.50;0.50;;;;;;;;;;10361857;28;20593;-71
2021/01/28 23:25:21;;;;;;;1.03;0.50;;;;;;;;;;10373209;28;20228;-72
2021/01/28 23:30:25;;;;;;;0.30;0.30;;;;;;;;;;10365761;28;20202;-72
2021/01/28 23:35:28;;;;;;;2.13;0.80;;;;;;;;;;10363248;28;20540;-73
2021/01/28 23:40:30;;;;;;;0.87;0.70;;;;;;;;;;10357443;28;20218;-71
2021/01/28 23:45:33;;;;;;;1.10;0.80;;;;;;;;;;10357562;28;20273;-71
2021/01/28 23:50:35;;;;;;;1.60;0.63;;;;;;;;;;10364517;28;20210;-72
2021/01/28 23:55:36;;;;;;;1.83;1.00;;;;;;;;;;10368263;28;20212;-70
